TAF Text Data
IDs:
Format:
Raw Decoded Include METAR

Data at: 0717 UTC 28 Sep 2022

METAR for:KMKT (Mankato Rgnl, MN, US)
Text:KMKT 280656Z AUTO 00000KT 10SM CLR 03/M01 A3043 RMK AO2 SLP314 T00331006
Temperature: 3.3°C ( 38°F)
Dewpoint: -0.6°C ( 31°F) [RH = 76%]
Pressure (altimeter):30.43 inches Hg (1030.6 mb) [Sea level pressure: 1031.4 mb]
Winds:calm
Visibility:10 or more sm (16+ km)
Ceiling:at least 12,000 feet AGL
Clouds:sky clear below 12,000 feet AGL
QC Flag:automated observation with no human augmentation

TAF for:KMKT (Mankato Rgnl, MN, US) issued at 0520 UTC 28 Sep 2022
Text:KMKT 280520Z 2806/2906 VRB03KT P6SM SKC
Forecast period:0600 to 1500 UTC 28 September 2022
Forecast type:FROM: standard forecast or significant change
Winds:variable direction winds at 3 MPH (3 knots; 1.5 m/s)
Visibility:6 or more sm (10+ km)
Ceiling:at least 12,000 feet AGL
Clouds:clear skies
Text:FM281500 16006KT P6SM SKC
Forecast period:1500 UTC 28 September 2022 to 0600 UTC 29 September 2022
Forecast type:FROM: standard forecast or significant change
Winds:from the SSE (160 degrees) at 7 MPH (6 knots; 3.1 m/s)
Visibility:6 or more sm (10+ km)
Ceiling:at least 12,000 feet AGL
Clouds:clear skies